createdAt,value
2017-12-16T00:00:53.756Z,84.34
2017-12-16T00:02:05.109Z,84.44
2017-12-16T00:03:15.152Z,84.44
2017-12-16T00:04:25.338Z,84.34
2017-12-16T00:05:35.239Z,84.72
2017-12-16T00:06:45.740Z,84.63
2017-12-16T00:07:55.761Z,84.53
2017-12-16T00:09:05.362Z,84.53
2017-12-16T00:10:14.885Z,84.53
2017-12-16T00:11:26.007Z,84.53
2017-12-16T00:12:36.166Z,84.44
2017-12-16T00:13:46.247Z,84.53
2017-12-16T00:14:56.380Z,84.53
2017-12-16T00:16:07.637Z,84.53
2017-12-16T00:17:18.406Z,84.58
2017-12-16T00:18:30.098Z,84.67
2017-12-16T00:19:40.277Z,84.53
2017-12-16T00:20:50.336Z,84.53
2017-12-16T00:22:00.416Z,84.58
2017-12-16T00:23:10.285Z,84.53
2017-12-16T00:24:20.110Z,84.39
2017-12-16T00:25:30.802Z,84.34
2017-12-16T00:26:40.866Z,84.53
2017-12-16T00:27:50.650Z,84.72
2017-12-16T00:29:00.704Z,84.53
2017-12-16T00:30:10.561Z,84.53
2017-12-16T00:31:20.622Z,84.72
2017-12-16T00:32:30.681Z,84.44
2017-12-16T00:33:40.756Z,84.91
2017-12-16T00:34:50.823Z,84.82
2017-12-16T00:36:00.880Z,84.82
2017-12-16T00:37:10.948Z,84.63
2017-12-16T00:38:21.005Z,84.72
2017-12-16T00:39:30.813Z,84.82
2017-12-16T00:40:40.867Z,84.91
2017-12-16T00:41:50.919Z,84.63
2017-12-16T00:43:00.719Z,84.63
2017-12-16T00:44:10.767Z,84.82
2017-12-16T00:45:20.578Z,84.82
2017-12-16T00:46:30.384Z,84.63
2017-12-16T00:47:40.193Z,84.53
2017-12-16T00:48:50.252Z,84.53
2017-12-16T00:50:00.052Z,84.53
2017-12-16T00:51:10.096Z,84.25
2017-12-16T00:52:19.902Z,84.53
2017-12-16T00:53:30.011Z,84.53
2017-12-16T00:54:40.070Z,84.63
2017-12-16T00:55:49.860Z,84.34
2017-12-16T00:56:59.905Z,84.63
2017-12-16T00:58:09.699Z,84.53
2017-12-16T00:59:19.809Z,84.44
2017-12-16T01:00:29.357Z,84.25
2017-12-16T01:01:40.625Z,84.25
2017-12-16T01:02:50.689Z,84.16
2017-12-16T01:04:00.743Z,84.25
2017-12-16T01:05:10.557Z,84.06
2017-12-16T01:06:20.662Z,84.25
2017-12-16T01:07:30.508Z,84.25
2017-12-16T01:08:40.299Z,84.06
2017-12-16T01:09:50.094Z,84.16
2017-12-16T01:10:59.876Z,84.34
2017-12-16T01:12:09.943Z,84.06
2017-12-16T01:13:19.473Z,84.16
2017-12-16T01:14:30.049Z,84.16
2017-12-16T01:15:40.129Z,84.44
2017-12-16T01:16:50.186Z,84.34
2017-12-16T01:18:00.244Z,84.53
2017-12-16T01:19:10.294Z,84.25
2017-12-16T01:20:20.358Z,84.63
2017-12-16T01:21:30.410Z,84.53
2017-12-16T01:22:40.467Z,84.49
2017-12-16T01:23:50.531Z,84.59
2017-12-16T01:25:01.325Z,84.49
2017-12-16T01:26:11.395Z,84.49
2017-12-16T01:27:21.438Z,84.68
2017-12-16T01:28:31.255Z,84.59
2017-12-16T01:29:41.320Z,84.4
2017-12-16T01:30:51.371Z,84.11
2017-12-16T01:32:01.429Z,84.11
2017-12-16T01:33:11.495Z,84.11
2017-12-16T01:34:21.302Z,84.25
2017-12-16T01:35:31.121Z,84.21
2017-12-16T01:36:40.932Z,83.92
2017-12-16T01:37:50.724Z,84.11
2017-12-16T01:39:00.760Z,84.11
2017-12-16T01:40:10.625Z,84.06
2017-12-16T01:41:20.673Z,84.21
2017-12-16T01:42:30.459Z,84.11
2017-12-16T01:43:40.262Z,84.01
2017-12-16T01:44:50.314Z,84.11
2017-12-16T01:46:00.379Z,84.01
2017-12-16T01:47:10.163Z,84.11
2017-12-16T01:48:20.208Z,84.21
2017-12-16T01:49:30.002Z,84.21
2017-12-16T01:50:40.107Z,83.92
2017-12-16T01:51:50.223Z,84.01
2017-12-16T01:53:00.030Z,83.92
2017-12-16T01:54:09.816Z,83.92
2017-12-16T01:55:19.589Z,83.92
2017-12-16T01:56:29.657Z,84.11
2017-12-16T01:57:39.781Z,84.11
2017-12-16T01:58:49.841Z,84.21
2017-12-16T01:59:59.891Z,84.01
2017-12-16T02:01:09.943Z,84.01
2017-12-16T02:02:19.986Z,84.21
2017-12-16T02:03:30.051Z,84.01
2017-12-16T02:04:39.837Z,84.11
2017-12-16T02:05:49.907Z,84.11
2017-12-16T02:06:59.703Z,83.92
2017-12-16T02:08:09.493Z,84.21
2017-12-16T02:09:19.334Z,84.01
2017-12-16T02:10:29.138Z,84.11
2017-12-16T02:11:39.172Z,84.21
2017-12-16T02:12:49.237Z,84.11
2017-12-16T02:13:58.510Z,83.92
2017-12-16T02:15:08.391Z,83.92
2017-12-16T02:16:18.456Z,84.21
2017-12-16T02:17:28.251Z,84.01
2017-12-16T02:18:38.048Z,84.01
2017-12-16T02:19:47.841Z,84.21
2017-12-16T02:20:57.906Z,84.11
2017-12-16T02:22:07.959Z,84.11
2017-12-16T02:23:17.485Z,83.92
2017-12-16T02:24:27.284Z,84.11
2017-12-16T02:25:37.330Z,83.92
2017-12-16T02:26:47.387Z,84.11
2017-12-16T02:27:57.448Z,83.92
2017-12-16T02:29:07.503Z,84.21
2017-12-16T02:30:17.557Z,84.21
2017-12-16T02:31:27.595Z,84.01
2017-12-16T02:32:37.402Z,84.01
2017-12-16T02:33:47.921Z,84.11
2017-12-16T02:34:57.707Z,84.11
2017-12-16T02:36:07.516Z,83.92
2017-12-16T02:37:17.575Z,84.01
2017-12-16T02:38:27.374Z,84.11
2017-12-16T02:39:36.906Z,84.01
2017-12-16T02:40:46.443Z,83.92
2017-12-16T02:41:56.239Z,84.11
2017-12-16T02:43:05.766Z,84.11
2017-12-16T02:44:15.818Z,84.01
2017-12-16T02:45:25.709Z,84.11
2017-12-16T02:46:35.755Z,84.11
2017-12-16T02:47:45.812Z,84.11
2017-12-16T02:48:55.631Z,83.92
2017-12-16T02:50:05.697Z,84.21
2017-12-16T02:51:15.477Z,84.11
2017-12-16T02:52:25.536Z,83.92
2017-12-16T02:53:35.332Z,84.11
2017-12-16T02:54:45.384Z,84.11
2017-12-16T02:55:54.975Z,84.21
2017-12-16T02:57:04.763Z,84.11
2017-12-16T02:58:14.032Z,84.01
2017-12-16T02:59:24.079Z,84.21
2017-12-16T03:00:34.142Z,84.01
2017-12-16T03:01:44.305Z,83.92
2017-12-16T03:02:54.080Z,84.21
2017-12-16T03:34:25.746Z,80.44
2017-12-16T03:35:35.790Z,80.72
2017-12-16T03:36:45.572Z,81.76
2017-12-16T03:37:55.159Z,82.43
2017-12-16T03:39:04.940Z,82.9
2017-12-16T03:40:14.512Z,83.85
2017-12-16T03:41:24.307Z,84.13
2017-12-16T03:42:34.107Z,84.94
2017-12-16T03:43:44.156Z,84.65
2017-12-16T03:44:54.192Z,84.84
2017-12-16T03:46:04.032Z,85.03
2017-12-16T03:47:14.103Z,85.22
2017-12-16T03:48:24.142Z,85.13
2017-12-16T03:49:34.225Z,85.45
2017-12-16T03:50:44.023Z,84.59
2017-12-16T03:51:54.119Z,84.98
2017-12-16T03:53:04.175Z,84.59
2017-12-16T03:54:14.211Z,84.78
2017-12-16T03:55:24.007Z,84.78
2017-12-16T03:56:34.055Z,84.83
2017-12-16T03:57:43.850Z,84.83
2017-12-16T03:58:53.904Z,84.55
2017-12-16T04:00:03.961Z,84.92
2017-12-16T04:01:14.018Z,84.74
2017-12-16T04:02:24.079Z,84.55
2017-12-16T04:03:34.176Z,84.64
2017-12-16T04:04:44.233Z,84.45
2017-12-16T04:05:54.021Z,84.45
2017-12-16T04:07:04.075Z,84.45
2017-12-16T04:08:13.617Z,84.36
2017-12-16T04:09:23.463Z,84.64
2017-12-16T04:10:33.512Z,84.4
2017-12-16T04:11:43.583Z,84.4
2017-12-16T04:12:53.643Z,84.4
2017-12-16T04:14:03.183Z,84.4
2017-12-16T04:15:12.975Z,84.21
2017-12-16T04:16:23.021Z,84.3
2017-12-16T04:17:33.087Z,83.92
2017-12-16T04:18:42.883Z,84.3
2017-12-16T04:19:52.412Z,84.21
2017-12-16T04:21:02.515Z,84.11
2017-12-16T04:22:12.304Z,84.21
2017-12-16T04:23:22.422Z,84.21
2017-12-16T04:24:32.203Z,84.21
2017-12-16T04:25:41.985Z,84.01
2017-12-16T04:26:51.834Z,84.21
2017-12-16T04:28:01.897Z,84.11
2017-12-16T04:29:11.949Z,84.01
2017-12-16T04:30:21.726Z,84.21
2017-12-16T04:31:31.518Z,84.21
2017-12-16T04:32:41.358Z,84.21
2017-12-16T04:33:50.883Z,84.11
2017-12-16T04:35:00.149Z,84.21
2017-12-16T04:36:09.949Z,84.3
2017-12-16T04:37:19.729Z,84.21
2017-12-16T04:38:29.793Z,84.11
2017-12-16T04:39:39.577Z,83.92
2017-12-16T04:40:49.369Z,84.11
2017-12-16T04:41:59.154Z,83.92
2017-12-16T04:43:09.206Z,84.4
2017-12-16T04:44:18.737Z,84.4
2017-12-16T04:45:28.794Z,84.49
2017-12-16T04:46:38.863Z,84.3
2017-12-16T04:47:48.446Z,84.68
2017-12-16T04:48:58.240Z,84.68
2017-12-16T04:50:08.078Z,84.68
2017-12-16T04:51:17.874Z,84.59
2017-12-16T04:52:27.661Z,84.59
2017-12-16T04:53:37.707Z,84.68
2017-12-16T04:54:47.772Z,84.59
2017-12-16T04:55:57.572Z,84.59
2017-12-16T04:57:07.629Z,84.59
2017-12-16T04:58:17.683Z,84.49
2017-12-16T04:59:27.476Z,84.49
2017-12-16T05:00:37.521Z,84.59
2017-12-16T05:01:47.574Z,84.49
2017-12-16T05:02:57.618Z,84.68
2017-12-16T05:04:07.693Z,84.49
2017-12-16T05:05:17.479Z,84.49
2017-12-16T05:06:27.540Z,84.68
2017-12-16T05:07:37.592Z,84.68
2017-12-16T05:08:47.667Z,84.49
2017-12-16T05:09:57.522Z,84.68
2017-12-16T05:11:07.601Z,84.49
2017-12-16T05:12:17.660Z,84.49
2017-12-16T05:13:27.708Z,84.49
2017-12-16T05:14:37.489Z,84.68
2017-12-16T05:15:47.288Z,84.49
2017-12-16T05:16:57.355Z,84.68
2017-12-16T05:18:07.406Z,84.59
2017-12-16T05:19:17.247Z,84.49
2017-12-16T05:20:27.028Z,84.49
2017-12-16T05:21:36.830Z,84.49
2017-12-16T05:22:46.883Z,84.49
2017-12-16T05:23:56.675Z,84.49
2017-12-16T05:25:06.466Z,84.49
2017-12-16T05:26:16.266Z,84.49
2017-12-16T05:27:26.052Z,84.4
2017-12-16T05:28:36.113Z,84.59
2017-12-16T05:29:46.166Z,84.49
2017-12-16T05:30:55.964Z,84.59
2017-12-16T05:32:05.765Z,84.49
2017-12-16T05:33:15.820Z,84.4
2017-12-16T05:34:25.874Z,84.4
2017-12-16T05:35:35.661Z,84.21
2017-12-16T05:36:45.723Z,84.49
2017-12-16T05:37:55.764Z,84.3
2017-12-16T05:39:05.824Z,84.59
2017-12-16T05:40:15.884Z,84.3
2017-12-16T05:41:25.942Z,84.59
2017-12-16T05:42:35.467Z,84.4
2017-12-16T05:43:45.512Z,84.3
2017-12-16T05:44:55.049Z,84.49
2017-12-16T05:46:04.826Z,84.49
2017-12-16T05:47:14.863Z,84.49
2017-12-16T05:48:24.380Z,84.4
2017-12-16T05:49:34.436Z,84.49
2017-12-16T05:50:44.214Z,84.59
2017-12-16T05:51:54.266Z,84.49
2017-12-16T05:53:04.315Z,84.4
2017-12-16T05:54:15.201Z,84.4
2017-12-16T05:55:25.255Z,84.36
2017-12-16T05:56:35.042Z,84.4
2017-12-16T05:57:44.561Z,84.4
2017-12-16T05:58:54.614Z,84.3
2017-12-16T06:00:04.128Z,84.11
2017-12-16T06:01:14.180Z,84.4
2017-12-16T06:02:24.235Z,84.4
2017-12-16T06:03:34.018Z,84.49
2017-12-16T06:04:44.075Z,84.49
2017-12-16T06:05:54.171Z,84.26
2017-12-16T06:07:04.232Z,84.26
2017-12-16T06:08:14.031Z,84.36
2017-12-16T06:09:23.822Z,84.11
2017-12-16T06:10:33.857Z,84.11
2017-12-16T06:11:43.960Z,84.11
2017-12-16T06:12:54.002Z,84.17
2017-12-16T06:14:03.800Z,84.11
2017-12-16T06:15:13.860Z,83.97
2017-12-16T06:16:23.975Z,84.3
2017-12-16T06:17:34.023Z,84.07
2017-12-16T06:18:44.074Z,84.07
2017-12-16T06:19:54.205Z,84.11
2017-12-16T06:21:04.269Z,84.17
2017-12-16T06:22:14.060Z,84.45
2017-12-16T06:23:24.123Z,84.36
2017-12-16T06:24:33.909Z,84.07
2017-12-16T06:25:43.951Z,84.26
2017-12-16T06:26:54.000Z,84.07
2017-12-16T06:28:03.814Z,83.97
2017-12-16T06:29:13.916Z,84.26
2017-12-16T06:30:24.002Z,84.07
2017-12-16T06:31:34.049Z,83.97
2017-12-16T06:32:43.832Z,83.97
2017-12-16T06:33:53.888Z,84.26
2017-12-16T06:35:03.939Z,84.17
2017-12-16T06:36:13.767Z,84.07
2017-12-16T06:37:23.823Z,84.07
2017-12-16T06:38:33.865Z,83.97
2017-12-16T06:39:43.671Z,83.97
2017-12-16T06:40:53.469Z,84.17
2017-12-16T06:42:03.505Z,84.17
2017-12-16T06:43:13.274Z,84.17
2017-12-16T06:44:23.325Z,84.17
2017-12-16T06:45:33.369Z,83.97
2017-12-16T06:46:43.208Z,84.07
2017-12-16T06:47:53.001Z,84.17
2017-12-16T06:49:02.786Z,83.97
2017-12-16T06:50:12.591Z,84.17
2017-12-16T06:51:22.384Z,83.97
2017-12-16T06:52:32.510Z,83.97
2017-12-16T06:53:41.539Z,84.17
2017-12-16T06:54:51.575Z,84.07
2017-12-16T06:56:01.627Z,84.07
2017-12-16T06:57:11.702Z,84.07
2017-12-16T06:58:21.231Z,84.07
2017-12-16T06:59:31.311Z,84.21
2017-12-16T07:00:41.379Z,84.07
2017-12-16T07:01:51.435Z,84.17
2017-12-16T07:03:02.235Z,84.4
2017-12-16T07:04:12.292Z,84.36
2017-12-16T07:05:22.077Z,83.78
2017-12-16T07:06:31.859Z,84.01
2017-12-16T07:07:41.399Z,83.64
2017-12-16T07:08:51.521Z,83.64
2017-12-16T07:10:01.082Z,83.45
2017-12-16T07:11:11.136Z,83.36
2017-12-16T07:12:20.930Z,83.45
2017-12-16T07:13:30.981Z,83.73
2017-12-16T07:14:40.245Z,83.45
2017-12-16T07:15:50.134Z,83.45
2017-12-16T07:17:00.185Z,83.45
2017-12-16T07:18:10.236Z,83.54
2017-12-16T07:19:20.291Z,83.45
2017-12-16T07:20:30.327Z,83.92
2017-12-16T07:21:40.369Z,83.64
2017-12-16T07:22:49.626Z,83.64
2017-12-16T07:23:59.287Z,83.73
2017-12-16T07:25:09.061Z,84.01
2017-12-16T07:26:18.851Z,83.73
2017-12-16T07:27:28.690Z,83.64
2017-12-16T07:28:38.752Z,83.64
2017-12-16T07:29:48.806Z,83.36
2017-12-16T07:30:58.734Z,83.36
2017-12-16T07:32:09.314Z,83.36
2017-12-16T07:33:19.407Z,83.92
2017-12-16T07:34:29.219Z,83.83
2017-12-16T07:35:39.021Z,83.83
2017-12-16T07:36:48.815Z,83.3
2017-12-16T07:37:58.879Z,83.26
2017-12-16T07:39:09.004Z,83.3
2017-12-16T07:40:18.794Z,83.3
2017-12-16T07:41:28.580Z,83.2
2017-12-16T07:42:38.117Z,83.3
2017-12-16T07:43:47.903Z,83.01
2017-12-16T07:44:57.445Z,83.01
2017-12-16T07:46:07.497Z,82.92
2017-12-16T07:47:17.284Z,83.3
2017-12-16T07:48:27.075Z,83.3
2017-12-16T07:49:36.595Z,83.01
2017-12-16T07:50:46.224Z,83.2
2017-12-16T07:51:56.005Z,83.3
2017-12-16T07:53:06.063Z,83.39
2017-12-16T07:54:15.865Z,83.2
2017-12-16T07:55:25.996Z,83.01
2017-12-16T07:56:36.064Z,83.01
2017-12-16T07:57:46.144Z,83.34
2017-12-16T07:58:55.926Z,83.25
2017-12-16T08:00:05.724Z,83.34
2017-12-16T08:01:15.567Z,83.15
2017-12-16T08:02:25.106Z,83.25
2017-12-16T08:03:34.902Z,83.34
2017-12-16T08:04:44.691Z,83.34
2017-12-16T08:05:54.761Z,82.96
2017-12-16T08:07:04.548Z,83.44
2017-12-16T08:08:14.844Z,83.53
2017-12-16T08:09:24.655Z,83.15
2017-12-16T08:10:34.459Z,83.34
2017-12-16T08:11:44.254Z,83.06
2017-12-16T08:12:54.302Z,83.15
2017-12-16T08:14:04.386Z,83.06
2017-12-16T08:15:13.910Z,83.44
2017-12-16T08:16:23.698Z,84.1
2017-12-16T08:17:33.787Z,83.72
2017-12-16T08:18:43.920Z,84.1
2017-12-16T08:19:53.706Z,83.72
2017-12-16T08:21:03.749Z,83.72
2017-12-16T08:22:13.830Z,84.01
2017-12-16T08:23:23.099Z,83.53
2017-12-16T08:24:32.888Z,83.62
2017-12-16T08:25:42.692Z,83.72
2017-12-16T08:26:53.398Z,83.62
2017-12-16T08:28:03.184Z,83.62
2017-12-16T08:29:12.746Z,83.91
2017-12-16T08:30:22.837Z,84.01
2017-12-16T08:31:32.900Z,83.06
2017-12-16T08:32:42.709Z,83.15
2017-12-16T08:33:52.804Z,83.44
2017-12-16T08:35:02.621Z,83.06
2017-12-16T08:36:12.677Z,83
2017-12-16T08:37:22.752Z,83.19
2017-12-16T08:38:32.812Z,83.29
2017-12-16T08:39:42.614Z,83.39
2017-12-16T08:40:52.414Z,83.39
2017-12-16T08:42:02.461Z,83.39
2017-12-16T08:43:12.313Z,83
2017-12-16T08:44:21.844Z,82.95
2017-12-16T08:45:31.646Z,82.86
2017-12-16T08:46:41.439Z,83.04
2017-12-16T08:47:51.572Z,83.04
2017-12-16T08:49:00.837Z,82.86
2017-12-16T08:50:10.903Z,83.42
2017-12-16T08:51:20.967Z,83.33
2017-12-16T08:52:30.761Z,83.14
2017-12-16T08:53:40.808Z,83.23
2017-12-16T08:54:50.360Z,82.86
2017-12-16T08:56:00.163Z,83.14
2017-12-16T08:57:10.228Z,82.95
2017-12-16T08:58:20.021Z,82.86
2017-12-16T08:59:30.077Z,82.86
2017-12-16T09:00:39.916Z,82.86
2017-12-16T09:01:49.961Z,82.99
2017-12-16T09:03:00.030Z,82.99
2017-12-16T09:04:10.105Z,83.18
2017-12-16T09:05:20.231Z,83.18
2017-12-16T09:06:30.320Z,83.09
2017-12-16T09:07:40.411Z,83.47
2017-12-16T09:08:50.193Z,83.09
2017-12-16T09:10:00.249Z,83.75
2017-12-16T09:11:10.067Z,83.47
2017-12-16T09:12:19.863Z,83.56
2017-12-16T09:13:30.910Z,84.23
2017-12-16T09:14:40.973Z,83.75
2017-12-16T09:15:51.041Z,84.04
2017-12-16T09:17:01.149Z,83.94
2017-12-16T09:18:11.203Z,83.85
2017-12-16T09:19:20.994Z,84.23
2017-12-16T09:20:30.268Z,83.85
2017-12-16T09:21:40.099Z,83.85
2017-12-16T09:22:50.152Z,83.56
2017-12-16T09:24:00.224Z,83.65
2017-12-16T09:25:09.778Z,83.09
2017-12-16T09:26:19.842Z,83.18
2017-12-16T09:27:29.397Z,83.18
2017-12-16T09:28:39.622Z,83.56
2017-12-16T09:29:49.678Z,83.37
2017-12-16T09:30:59.758Z,83.18
2017-12-16T09:32:09.829Z,83.47
2017-12-16T09:33:19.897Z,83.47
2017-12-16T09:34:29.716Z,83.47
2017-12-16T09:35:39.795Z,82.9
2017-12-16T09:36:51.093Z,83.37
2017-12-16T09:38:01.157Z,83.18
2017-12-16T09:39:10.966Z,83.41
2017-12-16T09:40:21.076Z,83.13
2017-12-16T09:41:31.160Z,83.13
2017-12-16T09:42:40.697Z,82.84
2017-12-16T09:43:49.968Z,83.22
2017-12-16T09:45:00.091Z,83.32
2017-12-16T09:46:10.200Z,83.03
2017-12-16T09:47:20.001Z,82.93
2017-12-16T09:48:29.799Z,83.61
2017-12-16T09:49:39.862Z,83.51
2017-12-16T09:50:49.929Z,83.41
2017-12-16T09:52:00.051Z,82.84
2017-12-16T09:53:09.857Z,82.93
2017-12-16T09:54:19.919Z,82.84
2017-12-16T09:55:30.843Z,83.51
2017-12-16T09:56:40.632Z,83.51
2017-12-16T09:57:50.416Z,83.22
2017-12-16T09:58:59.972Z,83.32
2017-12-16T10:00:09.518Z,83.51
2017-12-16T10:01:19.602Z,83.51
2017-12-16T10:02:29.390Z,83.03
2017-12-16T10:03:39.218Z,83.51
2017-12-16T10:04:49.020Z,83.22
2017-12-16T10:05:58.799Z,83.03
2017-12-16T10:07:08.861Z,83.32
2017-12-16T10:08:18.929Z,83.32
2017-12-16T10:09:28.998Z,83.22
2017-12-16T10:10:39.109Z,83.22
2017-12-16T10:11:49.612Z,82.84
2017-12-16T10:12:59.663Z,82.65
2017-12-16T10:14:09.727Z,82.56
2017-12-16T10:15:19.526Z,82.93
2017-12-16T10:16:29.650Z,82.75
2017-12-16T10:17:39.708Z,83.13
2017-12-16T10:18:49.782Z,82.31
2017-12-16T10:19:59.834Z,82.27
2017-12-16T10:21:09.940Z,82.89
2017-12-16T10:22:20.044Z,82.69
2017-12-16T10:23:29.840Z,83.32
2017-12-16T10:24:39.965Z,82.93
2017-12-16T10:25:49.756Z,83.41
2017-12-16T10:26:59.794Z,83.41
2017-12-16T10:28:09.872Z,83.03
2017-12-16T10:29:19.989Z,83.22
2017-12-16T10:30:30.030Z,83.51
2017-12-16T10:31:40.091Z,83.51
2017-12-16T10:32:50.150Z,83.26
2017-12-16T10:34:00.254Z,83.13
2017-12-16T10:35:10.380Z,83.26
2017-12-16T10:36:20.446Z,83.03
2017-12-16T10:37:30.237Z,83.22
2017-12-16T10:38:40.590Z,83.41
2017-12-16T10:39:50.444Z,83.41
2017-12-16T10:41:00.243Z,83.51
2017-12-16T10:42:10.314Z,83.03
2017-12-16T10:43:20.104Z,83.51
2017-12-16T10:44:29.900Z,83.41
2017-12-16T10:45:39.487Z,83.41
2017-12-16T10:46:49.570Z,83.32
2017-12-16T10:47:59.374Z,83.32
2017-12-16T10:49:09.441Z,82.93
2017-12-16T10:50:19.242Z,83.22
2017-12-16T10:51:29.390Z,82.98
2017-12-16T10:52:39.585Z,83.26
2017-12-16T10:53:49.645Z,83.07
2017-12-16T10:54:59.539Z,83.13
2017-12-16T10:56:09.652Z,83.41
2017-12-16T10:57:19.723Z,83.41
2017-12-16T10:58:29.266Z,83.41
2017-12-16T10:59:40.188Z,83.51
2017-12-16T11:00:50.001Z,83.41
2017-12-16T11:02:00.035Z,83.61
2017-12-16T11:03:09.718Z,83.51
2017-12-16T11:04:19.514Z,83.7
2017-12-16T11:05:29.309Z,83.7
2017-12-16T11:06:39.113Z,83.51
2017-12-16T11:07:49.207Z,83.51
2017-12-16T11:08:59.310Z,83.51
2017-12-16T11:10:09.398Z,83.41
2017-12-16T11:11:19.450Z,83.22
2017-12-16T11:12:29.257Z,83.41
2017-12-16T11:13:39.328Z,83.13
2017-12-16T11:14:49.114Z,83.22
2017-12-16T11:15:59.181Z,82.84
2017-12-16T11:17:08.972Z,83.22
2017-12-16T11:18:19.024Z,83.13
2017-12-16T11:19:28.818Z,83.03
2017-12-16T11:20:38.664Z,83.61
2017-12-16T11:21:48.721Z,83.41
2017-12-16T11:22:58.781Z,83.32
2017-12-16T11:24:08.685Z,83.41
2017-12-16T11:25:18.817Z,83.22
2017-12-16T11:26:28.684Z,83.61
2017-12-16T11:27:38.750Z,83.61
2017-12-16T11:28:48.804Z,83.56
2017-12-16T11:29:58.914Z,83.47
2017-12-16T11:31:08.974Z,83.65
2017-12-16T11:32:19.030Z,83.47
2017-12-16T11:33:28.567Z,83.47
2017-12-16T11:34:38.630Z,83.18
2017-12-16T11:35:48.697Z,83.09
2017-12-16T11:36:58.751Z,83.18
2017-12-16T11:38:08.825Z,83.18
2017-12-16T11:39:19.519Z,83.28
2017-12-16T11:40:29.594Z,83.28
2017-12-16T11:41:39.500Z,83.37
2017-12-16T11:42:49.918Z,83.65
2017-12-16T11:44:00.095Z,83.65
2017-12-16T11:45:10.033Z,83.18
2017-12-16T11:46:21.085Z,83.37
2017-12-16T11:47:31.554Z,83.41
2017-12-16T11:48:41.766Z,82.93
2017-12-16T11:49:51.386Z,83.03
2017-12-16T11:51:01.436Z,83.03
2017-12-16T11:52:11.477Z,83.13
2017-12-16T11:53:21.296Z,83.13
2017-12-16T11:54:31.650Z,82.84
2017-12-16T11:55:41.724Z,82.84
2017-12-16T11:56:51.255Z,82.84
2017-12-16T11:58:01.048Z,83.22
2017-12-16T11:59:10.574Z,83.03
2017-12-16T12:00:20.633Z,83.13
2017-12-16T12:01:30.511Z,83.13
2017-12-16T12:02:41.014Z,82.84
2017-12-16T12:03:51.074Z,82.93
2017-12-16T12:05:00.866Z,82.84
2017-12-16T12:06:10.941Z,82.93
2017-12-16T12:07:21.005Z,82.93
2017-12-16T12:08:31.661Z,83.51
2017-12-16T12:09:41.753Z,83.32
2017-12-16T12:10:51.832Z,83.51
2017-12-16T12:12:02.815Z,83.51
2017-12-16T12:13:12.896Z,82.84
2017-12-16T12:14:22.954Z,83.36
2017-12-16T12:15:33.082Z,83.22
2017-12-16T12:16:43.133Z,83.26
2017-12-16T12:17:52.935Z,83.36
2017-12-16T12:19:03.004Z,83.41
2017-12-16T12:20:13.096Z,83.26
2017-12-16T12:21:22.896Z,83.22
2017-12-16T12:22:32.454Z,83.07
2017-12-16T12:23:41.989Z,83.22
2017-12-16T12:24:52.058Z,83.32
2017-12-16T12:26:01.857Z,83.55
2017-12-16T12:27:11.659Z,83.45
2017-12-16T12:28:23.118Z,83.51
2017-12-16T12:29:33.185Z,83.84
2017-12-16T12:30:42.725Z,83.74
2017-12-16T12:31:52.793Z,83.22
2017-12-16T12:33:02.919Z,83.55
2017-12-16T12:34:12.986Z,83.26
2017-12-16T12:35:23.054Z,82.5
2017-12-16T12:36:34.329Z,82.89
2017-12-16T12:37:44.381Z,82.21
2017-12-16T12:38:54.180Z,82.69
2017-12-16T12:40:03.960Z,82.89
2017-12-16T12:41:14.022Z,82.5
2017-12-16T12:42:24.088Z,82.79
2017-12-16T12:43:34.207Z,82.89
2017-12-16T12:44:44.277Z,82.89
2017-12-16T12:45:54.092Z,82.69
2017-12-16T12:47:04.159Z,82.6
2017-12-16T12:48:13.972Z,83.26
2017-12-16T12:49:24.034Z,83.17
2017-12-16T12:50:33.930Z,83.55
2017-12-16T12:51:43.759Z,83.07
2017-12-16T12:52:53.561Z,83.55
2017-12-16T12:54:03.736Z,83.17
2017-12-16T12:55:13.484Z,83.17
2017-12-16T12:56:23.059Z,83.51
2017-12-16T12:57:33.143Z,83.7
2017-12-16T12:58:42.428Z,83.41
2017-12-16T12:59:52.489Z,83.17
2017-12-16T13:01:02.545Z,83.17
2017-12-16T13:02:12.676Z,83.26
2017-12-16T13:03:22.813Z,83.74
2017-12-16T13:04:33.356Z,83.45
2017-12-16T13:05:43.408Z,83.32
2017-12-16T13:06:53.486Z,83.41
2017-12-16T13:08:03.603Z,83.51
2017-12-16T13:09:13.418Z,83.03
2017-12-16T13:10:23.478Z,83.13
2017-12-16T13:11:33.543Z,83.41
2017-12-16T13:12:43.594Z,83.45
2017-12-16T13:13:52.912Z,83.74
2017-12-16T13:15:03.426Z,83.45
2017-12-16T13:16:13.489Z,83.55
2017-12-16T13:17:23.563Z,83.45
2017-12-16T13:18:33.641Z,83.74
2017-12-16T13:19:43.498Z,83.55
2017-12-16T13:20:53.025Z,83.61
2017-12-16T13:22:02.822Z,83.45
2017-12-16T13:23:12.630Z,83.07
2017-12-16T13:24:22.699Z,83.45
2017-12-16T13:25:32.746Z,83.22
2017-12-16T13:26:42.804Z,83.51
2017-12-16T13:27:52.858Z,83.61
2017-12-16T13:29:02.658Z,83.61
2017-12-16T13:30:12.734Z,83.8
2017-12-16T13:31:22.585Z,84.27
2017-12-16T13:32:32.399Z,83.51
2017-12-16T13:33:42.510Z,83.51
2017-12-16T13:34:52.043Z,83.13
2017-12-16T13:36:02.105Z,83.7
2017-12-16T13:37:12.153Z,83.51
2017-12-16T13:38:21.966Z,83.8
2017-12-16T13:39:32.032Z,84.08
2017-12-16T13:40:42.107Z,84.17
2017-12-16T13:41:52.187Z,84.17
2017-12-16T13:43:02.599Z,83.89
2017-12-16T13:44:12.652Z,83.8
2017-12-16T13:45:22.516Z,83.8
2017-12-16T13:46:32.319Z,83.65
2017-12-16T13:47:42.523Z,84.13
2017-12-16T13:48:52.591Z,84.04
2017-12-16T13:50:02.388Z,84.13
2017-12-16T13:51:11.941Z,83.85
2017-12-16T13:52:22.004Z,84.13
2017-12-16T13:53:32.087Z,83.03
2017-12-16T13:54:42.225Z,83.41
2017-12-16T13:55:52.290Z,83.13
2017-12-16T13:57:02.339Z,83.41
2017-12-16T13:58:12.534Z,83.13
2017-12-16T13:59:22.340Z,83.03
2017-12-16T14:00:32.297Z,83.51
2017-12-16T14:01:42.643Z,83.32
2017-12-16T14:02:52.804Z,83.22
2017-12-16T14:04:02.884Z,83.13
2017-12-16T14:05:12.783Z,83.41
2017-12-16T14:06:22.643Z,83.22
2017-12-16T14:07:32.716Z,83.22
2017-12-16T14:08:42.656Z,83.7
2017-12-16T14:09:52.529Z,83.51
2017-12-16T14:11:02.331Z,83.61
2017-12-16T14:12:12.592Z,83.89
2017-12-16T14:13:24.042Z,84.27
2017-12-16T14:14:34.829Z,84.08
2017-12-16T14:15:44.930Z,83.98
2017-12-16T14:16:55.004Z,83.7
2017-12-16T14:18:05.000Z,84.42
2017-12-16T14:19:16.461Z,84.42
2017-12-16T14:20:25.983Z,84.52
2017-12-16T14:21:40.362Z,84.8
2017-12-16T14:22:51.330Z,84.42
2017-12-16T14:24:01.948Z,84.7
2017-12-16T14:25:11.504Z,84.89
2017-12-16T14:26:21.333Z,84.85
2017-12-16T14:27:31.428Z,84.95
2017-12-16T14:28:41.518Z,84.7
2017-12-16T14:29:51.314Z,84.56
2017-12-16T14:31:01.398Z,84.66
2017-12-16T14:32:10.956Z,84.56
2017-12-16T14:33:21.047Z,84.66
2017-12-16T14:34:31.134Z,84.66
2017-12-16T14:35:41.228Z,84.76
2017-12-16T14:36:51.284Z,84.66
2017-12-16T14:38:01.076Z,84.66
2017-12-16T14:39:11.342Z,84.47
2017-12-16T14:40:21.154Z,84.47
2017-12-16T14:41:30.978Z,84.47
2017-12-16T14:42:40.781Z,84.56
2017-12-16T14:43:50.604Z,84.66
2017-12-16T14:45:00.394Z,84.66
2017-12-16T14:46:10.470Z,84.76
2017-12-16T14:47:20.581Z,84.66
2017-12-16T14:48:30.395Z,84.72
2017-12-16T14:49:40.451Z,84.62
2017-12-16T14:50:51.628Z,84.72
2017-12-16T14:52:01.674Z,84.81
2017-12-16T14:53:11.796Z,84.72
2017-12-16T14:54:21.305Z,84.43
2017-12-16T14:55:30.848Z,84.62
2017-12-16T14:56:40.910Z,84.62
2017-12-16T14:57:50.769Z,84.72
2017-12-16T14:59:00.799Z,84.81
2017-12-16T15:00:10.869Z,85
2017-12-16T15:01:25.614Z,84.81
2017-12-16T15:02:35.801Z,84.52
2017-12-16T15:03:46.174Z,84.58
2017-12-16T15:04:56.852Z,84.72
2017-12-16T15:06:06.918Z,84.67
2017-12-16T15:07:16.978Z,84.86
2017-12-16T15:08:27.064Z,84.77
2017-12-16T15:09:37.128Z,84.77
2017-12-16T15:10:47.263Z,84.86
2017-12-16T15:11:57.070Z,84.67
2017-12-16T15:13:07.145Z,84.48
2017-12-16T15:14:18.771Z,84.29
2017-12-16T15:15:28.840Z,84.29
2017-12-16T15:16:39.103Z,84.58
2017-12-16T15:17:49.169Z,84.77
2017-12-16T15:19:01.388Z,84.58
2017-12-16T15:20:11.202Z,84.58
2017-12-16T15:21:21.272Z,84.39
2017-12-16T15:22:31.360Z,84.77
2017-12-16T15:23:41.192Z,84.29
2017-12-16T15:24:50.747Z,84.58
2017-12-16T15:26:00.859Z,84.48
2017-12-16T15:27:10.418Z,84.2
2017-12-16T15:28:20.267Z,84.2
2017-12-16T15:29:30.345Z,84.2
2017-12-16T15:30:40.401Z,84.29
2017-12-16T15:31:50.455Z,84.25
2017-12-16T15:33:00.014Z,84.16
2017-12-16T15:34:10.081Z,84.25